KTCS/TCS METAR and TAF weather

Enter ICAO airport designator
Station Type Date Time Source
KTCS METAR 2022/07/01 00:53 UTC NOAA

KTCS 010053Z AUTO 24006KT 10SM CLR 32/06 A3005 RMK AO2 SLP085 T03220056 $


Station Type Date Time Source
KTCS Decoded METAR 2022/07/01 00:53 UTC NOAA

TRUTH OR CONSEQUENCES MUNI, NM, United States (KTCS) 33-14N 107-16W 1469M
Jun 30, 2022 - 08:53 PM EDT / 2022.07.01 0053 UTC
Wind: from the WSW (240 degrees) at 7 MPH (6 KT):0
Visibility: 10 mile(s):0
Sky conditions: clear
Temperature: 90.0 F (32.2 C)
Dew Point: 42.1 F (5.6 C)
Relative Humidity: 18%
Pressure (altimeter): 30.05 in. Hg (1017 hPa)
ob: KTCS 010053Z AUTO 24006KT 10SM CLR 32/06 A3005 RMK AO2 SLP085 T03220056
cycle: 1

Station Type Date Time Source
KTCS TAF 2022/06/30 18:36 UTC NOAA

TAF KTCS 301733Z 3018/0118 19010KT P6SM FEW150
FM302300 25010G18KT P6SM SCT150
FM010600 31007KT P6SM BKN250

Example: see airport list